Chester, Massachusetts
Current Conditions -  °F | °C
As of 10:53 AM on Saturday 20 Dec 2014 (Local Time) from KBAF Reporting Station
Overcast Overcast  
Wind Chill: 21°   Ceiling: 2900
Heat Index: 28°   Visibility: 10mi
Dew Point: 18°   Wind: 7mph
Humidity: 66%   Direction: 350°N
Pressure: 30.28"   Gusts: NA
Location:  42.28°N, 72.98°W
Report Text: KBAF 201553Z 35006KT 10SM OVC029 M02/M08 A3028 RMK AO2 SLP260 T10221078
Loading
Personal Weather Stations






























Interactive Weather Map New forecast layout! Learn more

10-Day Weather Forecast

Advertisements
Track Severe Weather on mobile